Veradale, WA (99037)

6:59 PM PST on February 07, 2016 (GMT -0800)
24th and Adams | | Change Station
CLOSE
Current Station
Personal Weather Station
Location: Spokane Valley, WA
Elevation: 2057 ft
Nearby Weather Stations

Elev 2057 ft 47.63 °N, 117.21 °W | Updated 6 seconds ago

Overcast
Overcast
39.2 °F
Feels Like 39 °F
N
0.0
Wind Variable Wind from WSW
Gusts 0.0 mph

Today
High -- | Low -- °F
--% Chance of Precip.
Yesterday
High -- | Low -- °F
Precip. -- in
Pressure 30.70 in
Visibility 10.0 miles
Clouds Overcast 8000 ft
Windchill 39 °F
Dew Point 29 °F
Humidity 67%
Rainfall 0.00 in
Snow Depth Not available.
7:07 AM 4:58 PM
Waning Crescent, 0% visible
METAR KSFF 080253Z 36003KT 10SM OVC080 05/M01 A3064 RMK AO2 SLP395 T00501006 53008
Pressure 30.70 in
Visibility 10.0 miles
Clouds Overcast 8000 ft
Windchill 39 °F
Dew Point 29 °F
Humidity 67%
Rainfall 0.00 in
Snow Depth Not available.
7:07 AM 4:58 PM
Waning Crescent, 0% visible
METAR KSFF 080253Z 36003KT 10SM OVC080 05/M01 A3064 RMK AO2 SLP395 T00501006 53008

10-Day Weather Forecast

Almanac

Astronomy

Feb. 07, 2016 Rise Set
Actual Time
Civil Twilight
Nautical Twilight
Astronomical Twilight
Moon
Length of Visible Light
Length of Day
Tomorrow will be .
, % of the Moon is Illuminated

Today's Extremes

State Highs State Lows

Community

WunderPhotos

Upload Photos

1,891,373 photos uploaded!

WunderBlog® & News

Nearby

Air Quality

  Air Quality AQ Index Pollutant
Not available.

Snow Depth

Station Depth Elevation

Earthquake Activity

City Distance Mag. Time & Date
Minimum magnitude displayed is 2.5.

Coastal Water Temperatures

Place Temperature

Stations

Nearby Weather Stations

Station Location Temp. Windchill Dew Point Humidity Wind Precip. Elev Updated Type
                   

Watches & Warnings

There are currently no watches in effect.